Time;durP1;ratioP1;P1;durP2;ratioP2;P2;SDS_P1;SDS_P2;PMS_P1;PMS_P2;Temp;Humidity;BMP_temperature;BMP_pressure;BME280_temperature;BME280_humidity;BME280_pressure;Samples;Min_cycle;Max_cycle;Signal;HPM_P1;HPM_P2
2022/12/16 00:01:23;;;;;;;0.00;0.00;;;;;;;;;;5085525;28;20040;-71
2022/12/16 00:03:51;;;;;;;0.00;0.00;;;;;;;;;;5069997;28;20051;-71
2022/12/16 00:06:17;;;;;;;0.00;0.00;;;;;;;;;;5051965;28;20112;-71
2022/12/16 00:08:44;;;;;;;0.00;0.00;;;;;;;;;;5051934;28;20028;-72
2022/12/16 00:11:10;;;;;;;0.00;0.00;;;;;;;;;;5051913;28;20036;-71
2022/12/16 00:13:37;;;;;;;0.00;0.00;;;;;;;;;;5052089;28;20052;-72
2022/12/16 00:16:05;;;;;;;0.00;0.00;;;;;;;;;;5063174;28;20031;-71
2022/12/16 00:18:34;;;;;;;0.00;0.00;;;;;;;;;;5071984;28;20029;-73
2022/12/16 00:21:00;;;;;;;0.00;0.00;;;;;;;;;;5053619;28;20016;-72
2022/12/16 00:23:27;;;;;;;0.00;0.00;;;;;;;;;;5087911;28;20033;-71
2022/12/16 00:25:54;;;;;;;0.00;0.00;;;;;;;;;;5060990;28;20360;-73
2022/12/16 00:28:21;;;;;;;0.00;0.00;;;;;;;;;;5060480;28;20047;-73
2022/12/16 00:30:49;;;;;;;0.00;0.00;;;;;;;;;;5066533;28;20111;-72
2022/12/16 00:33:15;;;;;;;0.00;0.00;;;;;;;;;;5067665;28;20458;-72
2022/12/16 00:35:42;;;;;;;0.00;0.00;;;;;;;;;;5076229;28;20478;-72
2022/12/16 00:38:08;;;;;;;0.00;0.00;;;;;;;;;;5078093;28;20035;-72
2022/12/16 00:40:35;;;;;;;0.00;0.00;;;;;;;;;;5083263;28;20025;-73
2022/12/16 00:43:01;;;;;;;0.00;0.00;;;;;;;;;;5051349;28;20025;-72
2022/12/16 00:45:27;;;;;;;0.00;0.00;;;;;;;;;;5067973;28;20017;-72
2022/12/16 00:47:54;;;;;;;0.00;0.00;;;;;;;;;;5068998;28;20029;-72
2022/12/16 00:50:20;;;;;;;0.00;0.00;;;;;;;;;;5049730;28;20056;-73
2022/12/16 00:52:50;;;;;;;0.00;0.00;;;;;;;;;;5050684;28;20025;-72
2022/12/16 00:55:16;;;;;;;0.00;0.00;;;;;;;;;;5068728;28;20086;-72
2022/12/16 00:57:43;;;;;;;0.00;0.00;;;;;;;;;;5058122;28;20131;-72
2022/12/16 01:00:11;;;;;;;0.00;0.00;;;;;;;;;;5064872;28;20104;-72
2022/12/16 01:02:42;;;;;;;0.00;0.00;;;;;;;;;;5058565;28;20400;-72
2022/12/16 01:05:09;;;;;;;0.00;0.00;;;;;;;;;;5062965;28;20026;-73
2022/12/16 01:07:35;;;;;;;0.00;0.00;;;;;;;;;;5067460;28;20372;-71
2022/12/16 01:10:01;;;;;;;0.00;0.00;;;;;;;;;;5054960;28;20025;-71
2022/12/16 01:12:28;;;;;;;0.00;0.00;;;;;;;;;;5053076;28;20681;-72
2022/12/16 01:14:54;;;;;;;0.00;0.00;;;;;;;;;;5054785;28;20086;-72
2022/12/16 01:17:20;;;;;;;0.00;0.00;;;;;;;;;;5053816;28;20159;-72
2022/12/16 01:19:47;;;;;;;0.00;0.00;;;;;;;;;;5053842;28;20104;-71
2022/12/16 01:22:13;;;;;;;0.00;0.00;;;;;;;;;;5053956;28;20021;-72
2022/12/16 01:24:39;;;;;;;0.00;0.00;;;;;;;;;;5055225;28;20275;-72
2022/12/16 01:27:06;;;;;;;0.00;0.00;;;;;;;;;;5053785;28;20078;-72
2022/12/16 01:29:32;;;;;;;0.00;0.00;;;;;;;;;;5050855;28;20434;-72
2022/12/16 01:31:58;;;;;;;0.00;0.00;;;;;;;;;;5043472;28;20052;-73
2022/12/16 01:34:25;;;;;;;0.00;0.00;;;;;;;;;;5034927;28;20025;-73
2022/12/16 01:36:51;;;;;;;0.00;0.00;;;;;;;;;;5035345;28;20108;-71
2022/12/16 01:39:17;;;;;;;0.00;0.00;;;;;;;;;;5033620;28;20025;-72
2022/12/16 01:41:47;;;;;;;0.00;0.00;;;;;;;;;;5036160;28;20422;-72
2022/12/16 01:44:18;;;;;;;0.00;0.00;;;;;;;;;;5049099;28;20052;-73
2022/12/16 01:46:55;;;;;;;0.00;0.00;;;;;;;;;;5051080;28;20068;-72
2022/12/16 01:49:27;;;;;;;0.00;0.00;;;;;;;;;;5053962;28;20025;-72
2022/12/16 01:51:55;;;;;;;0.00;0.00;;;;;;;;;;5054293;28;20055;-72
2022/12/16 01:54:23;;;;;;;0.00;0.00;;;;;;;;;;5052872;28;20025;-72
2022/12/16 01:57:01;;;;;;;0.00;0.00;;;;;;;;;;5038419;28;20073;-71
2022/12/16 01:59:29;;;;;;;0.00;0.00;;;;;;;;;;5015966;28;20030;-72
2022/12/16 02:01:56;;;;;;;0.00;0.00;;;;;;;;;;5015877;28;20029;-72
2022/12/16 02:04:22;;;;;;;0.00;0.00;;;;;;;;;;5007463;28;20052;-74
2022/12/16 02:06:48;;;;;;;0.00;0.00;;;;;;;;;;5029964;28;20076;-73
2022/12/16 02:09:16;;;;;;;0.00;0.00;;;;;;;;;;5028238;28;20053;-72
2022/12/16 02:11:42;;;;;;;0.00;0.00;;;;;;;;;;5003815;28;20033;-73
2022/12/16 02:14:24;;;;;;;0.00;0.00;;;;;;;;;;5028474;28;20022;-73
2022/12/16 02:16:51;;;;;;;0.00;0.00;;;;;;;;;;5003337;28;20030;-72
2022/12/16 02:19:37;;;;;;;0.00;0.00;;;;;;;;;;5031833;28;20033;-72
2022/12/16 02:22:25;;;;;;;0.00;0.00;;;;;;;;;;5031136;28;20131;-72
2022/12/16 02:25:17;;;;;;;0.00;0.00;;;;;;;;;;5014942;28;20025;-72
2022/12/16 02:27:43;;;;;;;0.00;0.00;;;;;;;;;;5009851;28;20495;-71
2022/12/16 02:30:22;;;;;;;0.00;0.00;;;;;;;;;;5013151;28;20517;-71
2022/12/16 02:32:48;;;;;;;0.00;0.00;;;;;;;;;;5026606;28;20068;-72
2022/12/16 02:35:18;;;;;;;0.00;0.00;;;;;;;;;;5007113;28;20555;-72
2022/12/16 02:37:51;;;;;;;0.00;0.00;;;;;;;;;;5008027;28;20025;-71
2022/12/16 02:40:25;;;;;;;0.00;0.00;;;;;;;;;;5010745;28;20029;-72
2022/12/16 02:42:54;;;;;;;0.00;0.00;;;;;;;;;;5009549;28;20017;-72
2022/12/16 02:45:29;;;;;;;0.00;0.00;;;;;;;;;;5009770;28;20072;-72
2022/12/16 02:47:55;;;;;;;0.00;0.00;;;;;;;;;;5008895;28;20056;-72
2022/12/16 02:50:21;;;;;;;0.00;0.00;;;;;;;;;;5026111;28;20471;-73
2022/12/16 02:52:48;;;;;;;0.00;0.00;;;;;;;;;;5010876;28;20021;-73
2022/12/16 02:55:15;;;;;;;0.00;0.00;;;;;;;;;;5009328;28;20125;-76
2022/12/16 02:58:04;;;;;;;0.00;0.00;;;;;;;;;;5025627;28;20049;-75
2022/12/16 03:00:39;;;;;;;0.00;0.00;;;;;;;;;;5034955;28;20563;-75
2022/12/16 03:03:08;;;;;;;0.00;0.00;;;;;;;;;;5045846;28;20030;-75
2022/12/16 03:05:35;;;;;;;0.00;0.00;;;;;;;;;;5044637;28;20028;-75
2022/12/16 03:08:06;;;;;;;0.00;0.00;;;;;;;;;;5041798;28;20056;-78
2022/12/16 03:10:35;;;;;;;0.00;0.00;;;;;;;;;;5049856;28;20033;-74
2022/12/16 03:13:03;;;;;;;0.00;0.00;;;;;;;;;;5047774;28;20033;-73
2022/12/16 03:15:31;;;;;;;0.00;0.00;;;;;;;;;;5041402;28;20064;-75
2022/12/16 03:17:59;;;;;;;0.00;0.00;;;;;;;;;;5045410;28;20027;-77
2022/12/16 03:20:31;;;;;;;0.00;0.00;;;;;;;;;;5045286;28;20045;-74
2022/12/16 03:23:01;;;;;;;0.00;0.00;;;;;;;;;;5043161;28;20032;-73
2022/12/16 03:25:28;;;;;;;0.00;0.00;;;;;;;;;;5043905;28;20021;-72
2022/12/16 03:28:02;;;;;;;0.00;0.00;;;;;;;;;;5038400;28;20044;-74
2022/12/16 03:30:33;;;;;;;0.00;0.00;;;;;;;;;;5037110;28;20040;-75
2022/12/16 03:33:13;;;;;;;0.00;0.00;;;;;;;;;;5059166;28;20029;-76
2022/12/16 03:35:42;;;;;;;0.00;0.00;;;;;;;;;;5044741;28;20036;-80
2022/12/16 03:38:10;;;;;;;0.00;0.00;;;;;;;;;;5049019;28;20029;-76
2022/12/16 03:40:38;;;;;;;0.00;0.00;;;;;;;;;;5038862;28;20144;-75
2022/12/16 03:43:05;;;;;;;0.00;0.00;;;;;;;;;;5041792;28;20055;-79
2022/12/16 03:45:37;;;;;;;0.00;0.00;;;;;;;;;;5047581;28;20022;-80
2022/12/16 03:48:03;;;;;;;0.00;0.00;;;;;;;;;;5048068;28;20116;-79
2022/12/16 03:50:33;;;;;;;0.00;0.00;;;;;;;;;;5042092;28;20044;-78
2022/12/16 03:52:59;;;;;;;0.00;0.00;;;;;;;;;;5047586;28;20029;-79
2022/12/16 03:55:25;;;;;;;0.00;0.00;;;;;;;;;;5048544;28;20459;-77
2022/12/16 03:57:52;;;;;;;0.00;0.00;;;;;;;;;;5043452;28;20048;-76
2022/12/16 04:00:18;;;;;;;0.00;0.00;;;;;;;;;;5042757;28;20030;-79
2022/12/16 04:02:45;;;;;;;0.00;0.00;;;;;;;;;;5048037;28;20029;-79
2022/12/16 04:05:11;;;;;;;0.00;0.00;;;;;;;;;;5047166;28;20078;-77
2022/12/16 04:07:37;;;;;;;0.00;0.00;;;;;;;;;;5041190;28;20029;-78
2022/12/16 04:10:04;;;;;;;0.00;0.00;;;;;;;;;;5042929;28;20036;-78
2022/12/16 04:26:18;;;;;;;0.00;0.00;;;;;;;;;;5047767;28;20032;-75
2022/12/16 04:28:44;;;;;;;0.00;0.00;;;;;;;;;;5047530;28;20108;-74
2022/12/16 04:31:11;;;;;;;0.00;0.00;;;;;;;;;;5043594;28;20086;-75
